Main page
METAR-TAF:

METAR-TAF

Airports :

Campbeltown, Scotland

Campbeltown Airport

latitude: 55-26-14N, longitude: 005-41-11W, elevation: 13 m

Current weather observation

The report was made 4 hours and 46 minutes ago, at 19:20 UTC
Wind 11 kt from the Southeast
Temperature 13°C
Humidity 94%
Pressure 1016 hPa
Visibility 10 km or more
Broken clouds at a height of 4300 ft

METAR: EGEC 191920Z 14011KT 9999 BKN043 13/12 Q1016

Time: 01:06 (00:06 UTC)

Forecast

The report was made 10 hours and 8 minutes ago, at 13:58 UTC
Forecast valid from 19 at 15 UTC to 19 at 17 UTC
Wind 12 kt from the South
Visibility 10 km or more
Few clouds at a height of 2200 ft
Broken clouds at a height of 3000 ft

TAF: EGEC 191358Z 1915/1917 17012KT 9999 FEW022 BKN030

Weather observations and forecasts of more than 4000 airports (METAR and TAF reports).

The available stations are represented by yellow and red dots on the map.

Hover mouse over dot to see the name of the station.

Then click to see weather observations and forecasts.

To change the map : click on the green buttons with a black cross to zoom in, on the green button with a dash to zoom out, or on the green arrows for adjacent maps.


METAR-TAF: